Time;durP1;ratioP1;P1;durP2;ratioP2;P2;SDS_P1;SDS_P2;PMS_P1;PMS_P2;Temp;Humidity;BMP_temperature;BMP_pressure;BME280_temperature;BME280_humidity;BME280_pressure;Samples;Min_cycle;Max_cycle;Signal;HPM_P1;HPM_P2
2023/04/26 00:00:42;;;;;;;0.00;0.00;;;;;;;;;;1731208;28;20746;-73
2023/04/26 00:01:34;;;;;;;0.00;0.00;;;;;;;;;;1732084;28;20218;-73
2023/04/26 00:02:26;;;;;;;0.00;0.00;;;;;;;;;;1733161;28;20216;-73
2023/04/26 00:03:19;;;;;;;0.00;0.00;;;;;;;;;;1732458;28;20218;-73
2023/04/26 00:04:10;;;;;;;0.00;0.00;;;;;;;;;;1731340;28;20212;-73
2023/04/26 00:05:03;;;;;;;0.10;0.10;;;;;;;;;;1732391;28;20238;-73
2023/04/26 00:05:54;;;;;;;0.00;0.00;;;;;;;;;;1735040;28;20383;-73
2023/04/26 00:06:48;;;;;;;0.00;0.00;;;;;;;;;;1732217;28;20693;-73
2023/04/26 00:07:39;;;;;;;0.00;0.00;;;;;;;;;;1732878;28;20642;-73
2023/04/26 00:08:31;;;;;;;0.00;0.00;;;;;;;;;;1732687;28;20243;-73
2023/04/26 00:09:22;;;;;;;0.30;0.30;;;;;;;;;;1732759;28;20216;-73
2023/04/26 00:10:14;;;;;;;0.00;0.00;;;;;;;;;;1732034;28;20361;-74
2023/04/26 00:11:05;;;;;;;0.00;0.00;;;;;;;;;;1730799;28;20751;-74
2023/04/26 00:11:58;;;;;;;0.00;0.00;;;;;;;;;;1732570;28;20223;-74
2023/04/26 00:12:49;;;;;;;0.00;0.00;;;;;;;;;;1732217;28;20212;-74
2023/04/26 00:13:41;;;;;;;0.00;0.00;;;;;;;;;;1732809;28;20211;-74
2023/04/26 00:14:32;;;;;;;0.00;0.00;;;;;;;;;;1732661;28;20640;-74
2023/04/26 00:15:25;;;;;;;0.00;0.00;;;;;;;;;;1730901;28;20592;-73
2023/04/26 00:16:17;;;;;;;0.00;0.00;;;;;;;;;;1732377;28;20265;-73
2023/04/26 00:17:09;;;;;;;0.03;0.03;;;;;;;;;;1732564;28;20634;-73
2023/04/26 00:18:00;;;;;;;0.10;0.10;;;;;;;;;;1732220;28;20223;-73
2023/04/26 00:18:53;;;;;;;0.05;0.05;;;;;;;;;;1732560;28;20232;-73
2023/04/26 00:19:44;;;;;;;0.03;0.03;;;;;;;;;;1732184;28;20266;-73
2023/04/26 00:20:36;;;;;;;0.10;0.10;;;;;;;;;;1731418;28;20235;-73
2023/04/26 00:21:27;;;;;;;0.00;0.00;;;;;;;;;;1732487;28;20265;-73
2023/04/26 00:22:19;;;;;;;0.10;0.10;;;;;;;;;;1732714;28;20852;-73
2023/04/26 00:23:10;;;;;;;0.10;0.10;;;;;;;;;;1731899;28;20220;-73
2023/04/26 00:24:02;;;;;;;0.00;0.00;;;;;;;;;;1733120;28;20207;-73
2023/04/26 00:24:53;;;;;;;0.00;0.00;;;;;;;;;;1731636;28;20216;-73
2023/04/26 00:25:45;;;;;;;0.10;0.10;;;;;;;;;;1726823;28;20306;-73
2023/04/26 00:26:36;;;;;;;0.10;0.10;;;;;;;;;;1731117;28;20630;-73
2023/04/26 00:27:29;;;;;;;0.00;0.00;;;;;;;;;;1733041;28;20315;-73
2023/04/26 00:28:20;;;;;;;0.00;0.00;;;;;;;;;;1732263;28;20683;-73
2023/04/26 00:29:12;;;;;;;0.10;0.10;;;;;;;;;;1732798;28;20218;-73
2023/04/26 00:30:04;;;;;;;0.20;0.20;;;;;;;;;;1732409;28;20675;-73
2023/04/26 00:30:56;;;;;;;0.00;0.00;;;;;;;;;;1731112;28;20250;-73
2023/04/26 00:31:47;;;;;;;0.20;0.20;;;;;;;;;;1731849;28;20243;-73
2023/04/26 00:32:39;;;;;;;0.00;0.00;;;;;;;;;;1732701;28;20218;-73
2023/04/26 00:33:30;;;;;;;0.20;0.20;;;;;;;;;;1732575;28;20261;-73
2023/04/26 00:34:22;;;;;;;0.08;0.08;;;;;;;;;;1732843;28;20223;-73
2023/04/26 00:35:13;;;;;;;0.03;0.03;;;;;;;;;;1730803;28;20235;-73
2023/04/26 00:36:05;;;;;;;0.00;0.00;;;;;;;;;;1732396;28;20208;-73
2023/04/26 00:36:56;;;;;;;0.10;0.10;;;;;;;;;;1732189;28;20273;-73
2023/04/26 00:37:47;;;;;;;0.32;0.32;;;;;;;;;;1732267;28;20207;-73
2023/04/26 00:38:40;;;;;;;0.10;0.10;;;;;;;;;;1732418;28;20204;-73
2023/04/26 00:39:31;;;;;;;0.00;0.00;;;;;;;;;;1732804;28;20211;-73
2023/04/26 00:40:23;;;;;;;0.10;0.10;;;;;;;;;;1730601;28;20267;-72
2023/04/26 00:41:14;;;;;;;0.10;0.10;;;;;;;;;;1731686;28;20212;-73
2023/04/26 00:42:06;;;;;;;0.00;0.00;;;;;;;;;;1732434;28;20315;-73
2023/04/26 00:42:58;;;;;;;0.10;0.10;;;;;;;;;;1732077;28;20492;-73
2023/04/26 00:43:50;;;;;;;0.00;0.00;;;;;;;;;;1730262;28;20246;-73
2023/04/26 00:44:41;;;;;;;0.05;0.05;;;;;;;;;;1732081;28;20291;-73
2023/04/26 00:45:34;;;;;;;0.08;0.08;;;;;;;;;;1731377;28;20889;-73
2023/04/26 00:46:25;;;;;;;0.00;0.00;;;;;;;;;;1729545;28;20243;-73
2023/04/26 00:47:16;;;;;;;0.10;0.10;;;;;;;;;;1732643;28;20208;-73
2023/04/26 00:48:08;;;;;;;0.10;0.10;;;;;;;;;;1731887;28;20212;-73
2023/04/26 00:48:59;;;;;;;0.00;0.00;;;;;;;;;;1732551;28;20208;-73
2023/04/26 00:49:51;;;;;;;0.00;0.00;;;;;;;;;;1732154;28;20588;-73
2023/04/26 00:50:42;;;;;;;0.00;0.00;;;;;;;;;;1730798;28;21022;-73
2023/04/26 00:51:34;;;;;;;0.00;0.00;;;;;;;;;;1732504;28;20588;-73
2023/04/26 00:52:26;;;;;;;0.00;0.00;;;;;;;;;;1732485;28;20216;-73
2023/04/26 00:53:18;;;;;;;0.00;0.00;;;;;;;;;;1732280;28;20208;-73
2023/04/26 00:54:09;;;;;;;0.00;0.00;;;;;;;;;;1730448;28;20215;-73
2023/04/26 00:55:02;;;;;;;0.10;0.10;;;;;;;;;;1731412;28;20219;-73
2023/04/26 00:55:53;;;;;;;0.00;0.00;;;;;;;;;;1730647;28;20231;-73
2023/04/26 00:56:45;;;;;;;0.10;0.10;;;;;;;;;;1731835;28;20640;-73
2023/04/26 00:57:36;;;;;;;0.10;0.10;;;;;;;;;;1732402;28;20616;-73
2023/04/26 00:58:30;;;;;;;0.10;0.10;;;;;;;;;;1732199;28;20208;-73
2023/04/26 00:59:21;;;;;;;0.00;0.00;;;;;;;;;;1732301;28;20220;-73
2023/04/26 01:00:13;;;;;;;0.00;0.00;;;;;;;;;;1730795;28;20275;-73
2023/04/26 01:01:04;;;;;;;0.03;0.03;;;;;;;;;;1731258;28;20204;-73
2023/04/26 01:01:56;;;;;;;0.00;0.00;;;;;;;;;;1732352;28;20209;-73
2023/04/26 01:02:47;;;;;;;0.10;0.10;;;;;;;;;;1732072;28;20642;-73
2023/04/26 01:03:39;;;;;;;0.10;0.10;;;;;;;;;;1732410;28;20223;-73
2023/04/26 01:04:30;;;;;;;0.10;0.10;;;;;;;;;;1732512;28;20312;-73
2023/04/26 01:05:22;;;;;;;0.00;0.00;;;;;;;;;;1730607;28;20272;-73
2023/04/26 01:06:13;;;;;;;0.20;0.20;;;;;;;;;;1732106;28;20499;-73
2023/04/26 01:07:05;;;;;;;0.10;0.10;;;;;;;;;;1730993;28;20246;-73
2023/04/26 01:07:58;;;;;;;0.00;0.00;;;;;;;;;;1732188;28;20212;-73
2023/04/26 01:08:51;;;;;;;0.10;0.10;;;;;;;;;;1732220;28;20244;-73
2023/04/26 01:09:43;;;;;;;0.10;0.10;;;;;;;;;;1731759;28;20231;-73
2023/04/26 01:10:35;;;;;;;0.00;0.00;;;;;;;;;;1731541;28;20578;-74
2023/04/26 01:11:26;;;;;;;0.00;0.00;;;;;;;;;;1729325;28;20204;-73
2023/04/26 01:12:19;;;;;;;0.10;0.10;;;;;;;;;;1732359;28;20208;-73
2023/04/26 01:13:11;;;;;;;0.00;0.00;;;;;;;;;;1731621;28;20211;-73
2023/04/26 01:14:07;;;;;;;0.00;0.00;;;;;;;;;;1732489;28;20204;-73
2023/04/26 01:14:59;;;;;;;0.15;0.15;;;;;;;;;;1731808;28;20204;-73
2023/04/26 01:15:51;;;;;;;0.00;0.00;;;;;;;;;;1730805;28;20573;-73
2023/04/26 01:16:45;;;;;;;0.00;0.00;;;;;;;;;;1731848;28;20216;-73
2023/04/26 01:17:37;;;;;;;0.00;0.00;;;;;;;;;;1732217;28;20598;-73
2023/04/26 01:18:28;;;;;;;0.00;0.00;;;;;;;;;;1732224;28;20291;-73
2023/04/26 01:19:20;;;;;;;0.08;0.08;;;;;;;;;;1726329;28;20233;-73
2023/04/26 01:20:13;;;;;;;0.17;0.17;;;;;;;;;;1731596;28;20219;-73
2023/04/26 01:21:05;;;;;;;0.00;0.00;;;;;;;;;;1731473;28;20251;-73
2023/04/26 01:21:56;;;;;;;0.10;0.10;;;;;;;;;;1732020;28;20590;-73
2023/04/26 01:22:49;;;;;;;0.00;0.00;;;;;;;;;;1731809;28;20817;-73
2023/04/26 01:23:40;;;;;;;0.00;0.00;;;;;;;;;;1731854;28;20265;-73
2023/04/26 01:24:32;;;;;;;0.00;0.00;;;;;;;;;;1732131;28;20208;-73
2023/04/26 01:25:24;;;;;;;0.10;0.10;;;;;;;;;;1730908;28;20243;-73
2023/04/26 01:26:15;;;;;;;0.10;0.10;;;;;;;;;;1728550;28;20213;-73
2023/04/26 01:27:06;;;;;;;0.08;0.08;;;;;;;;;;1731574;28;20210;-73
2023/04/26 01:27:58;;;;;;;0.00;0.00;;;;;;;;;;1731757;28;20219;-73
2023/04/26 01:28:49;;;;;;;0.00;0.00;;;;;;;;;;1729971;28;20665;-73
2023/04/26 01:29:41;;;;;;;0.00;0.00;;;;;;;;;;1731757;28;20238;-73
2023/04/26 01:30:32;;;;;;;0.10;0.10;;;;;;;;;;1730981;28;20658;-73
2023/04/26 01:31:24;;;;;;;0.10;0.10;;;;;;;;;;1731781;28;20538;-73
2023/04/26 01:32:15;;;;;;;0.00;0.00;;;;;;;;;;1732283;28;20208;-73
2023/04/26 01:33:07;;;;;;;0.22;0.22;;;;;;;;;;1731730;28;20216;-73
2023/04/26 01:33:58;;;;;;;0.00;0.00;;;;;;;;;;1729682;28;20606;-73
2023/04/26 01:34:50;;;;;;;0.00;0.00;;;;;;;;;;1731716;28;20630;-73
2023/04/26 01:35:41;;;;;;;0.03;0.03;;;;;;;;;;1730641;28;20326;-73
2023/04/26 01:36:33;;;;;;;0.00;0.00;;;;;;;;;;1732043;28;20215;-73
2023/04/26 01:37:25;;;;;;;0.00;0.00;;;;;;;;;;1732132;28;20212;-73
2023/04/26 01:38:19;;;;;;;0.03;0.03;;;;;;;;;;1731660;28;20212;-72
2023/04/26 01:39:10;;;;;;;0.00;0.00;;;;;;;;;;1730032;28;20219;-73
2023/04/26 01:40:06;;;;;;;0.10;0.10;;;;;;;;;;1731893;28;20299;-73
2023/04/26 01:40:57;;;;;;;0.10;0.10;;;;;;;;;;1730209;28;20240;-73
2023/04/26 01:41:49;;;;;;;0.10;0.10;;;;;;;;;;1731604;28;20216;-73
2023/04/26 01:42:40;;;;;;;0.00;0.00;;;;;;;;;;1731831;28;20713;-73
2023/04/26 01:43:32;;;;;;;0.00;0.00;;;;;;;;;;1732293;28;20211;-73
2023/04/26 01:44:23;;;;;;;0.35;0.35;;;;;;;;;;1732052;28;20212;-73
2023/04/26 01:45:16;;;;;;;0.00;0.00;;;;;;;;;;1730480;28;20208;-73
2023/04/26 01:46:07;;;;;;;0.00;0.00;;;;;;;;;;1732144;28;20219;-73
2023/04/26 01:46:59;;;;;;;0.05;0.05;;;;;;;;;;1731902;28;20247;-73
2023/04/26 01:47:50;;;;;;;0.00;0.00;;;;;;;;;;1731968;28;20253;-73
2023/04/26 01:48:42;;;;;;;0.20;0.20;;;;;;;;;;1731910;28;20200;-73
2023/04/26 01:49:33;;;;;;;0.20;0.20;;;;;;;;;;1732188;28;20211;-73
2023/04/26 01:50:25;;;;;;;0.00;0.00;;;;;;;;;;1730459;28;20299;-73
2023/04/26 01:51:16;;;;;;;0.00;0.00;;;;;;;;;;1731505;28;20311;-73
2023/04/26 01:52:08;;;;;;;0.28;0.28;;;;;;;;;;1732185;28;20358;-73
2023/04/26 01:52:59;;;;;;;0.20;0.20;;;;;;;;;;1731394;28;20282;-73
2023/04/26 01:53:53;;;;;;;0.00;0.00;;;;;;;;;;1730094;28;20265;-73
2023/04/26 01:54:44;;;;;;;0.15;0.15;;;;;;;;;;1731331;28;20204;-73
2023/04/26 01:55:36;;;;;;;0.00;0.00;;;;;;;;;;1731168;28;20232;-73
2023/04/26 01:56:27;;;;;;;0.00;0.00;;;;;;;;;;1731510;28;20219;-74
2023/04/26 01:57:19;;;;;;;0.10;0.10;;;;;;;;;;1731807;28;20211;-73
2023/04/26 01:58:10;;;;;;;0.00;0.00;;;;;;;;;;1731403;28;20212;-73
2023/04/26 01:59:02;;;;;;;0.10;0.10;;;;;;;;;;1731634;28;20826;-73
2023/04/26 01:59:55;;;;;;;0.10;0.10;;;;;;;;;;1731661;28;20208;-73
2023/04/26 02:00:47;;;;;;;0.20;0.20;;;;;;;;;;1730645;28;20240;-73
2023/04/26 02:01:40;;;;;;;0.20;0.20;;;;;;;;;;1730679;28;20693;-73
2023/04/26 02:02:32;;;;;;;0.10;0.10;;;;;;;;;;1732682;28;20204;-73
2023/04/26 02:03:23;;;;;;;0.00;0.00;;;;;;;;;;1730280;28;20634;-73
2023/04/26 02:04:15;;;;;;;0.00;0.00;;;;;;;;;;1730478;28;20227;-73
2023/04/26 02:05:09;;;;;;;0.00;0.00;;;;;;;;;;1731617;28;20302;-73
2023/04/26 02:06:01;;;;;;;0.08;0.08;;;;;;;;;;1730574;28;20224;-73
2023/04/26 02:06:52;;;;;;;0.00;0.00;;;;;;;;;;1731641;28;20212;-73
2023/04/26 02:07:44;;;;;;;0.00;0.00;;;;;;;;;;1731617;28;20207;-73
2023/04/26 02:08:35;;;;;;;0.00;0.00;;;;;;;;;;1735750;28;20754;-73
2023/04/26 02:09:28;;;;;;;0.00;0.00;;;;;;;;;;1738721;28;20211;-73
2023/04/26 02:10:19;;;;;;;0.00;0.00;;;;;;;;;;1737149;28;20215;-73
2023/04/26 02:11:11;;;;;;;0.00;0.00;;;;;;;;;;1738370;28;20267;-73
2023/04/26 02:12:03;;;;;;;0.08;0.08;;;;;;;;;;1738819;28;20203;-73
2023/04/26 02:12:54;;;;;;;0.00;0.00;;;;;;;;;;1738366;28;20207;-73
2023/04/26 02:13:46;;;;;;;0.00;0.00;;;;;;;;;;1738921;28;20432;-73
2023/04/26 02:14:37;;;;;;;0.00;0.00;;;;;;;;;;1738975;28;20326;-73
2023/04/26 02:15:28;;;;;;;0.00;0.00;;;;;;;;;;1737839;28;20295;-73
2023/04/26 02:16:21;;;;;;;0.10;0.10;;;;;;;;;;1738518;28;20211;-73
2023/04/26 02:17:12;;;;;;;0.00;0.00;;;;;;;;;;1739132;28;20215;-73
2023/04/26 02:18:05;;;;;;;0.10;0.10;;;;;;;;;;1737954;28;20218;-73
2023/04/26 02:18:56;;;;;;;0.00;0.00;;;;;;;;;;1739126;28;20245;-73
2023/04/26 02:19:48;;;;;;;0.00;0.00;;;;;;;;;;1738174;28;20231;-73
2023/04/26 02:20:42;;;;;;;0.17;0.17;;;;;;;;;;1737467;28;20250;-73
2023/04/26 02:21:33;;;;;;;0.20;0.20;;;;;;;;;;1738931;28;20191;-73
2023/04/26 02:22:25;;;;;;;0.00;0.00;;;;;;;;;;1738650;28;20208;-73
2023/04/26 02:23:17;;;;;;;0.10;0.10;;;;;;;;;;1738597;28;20277;-73
2023/04/26 02:24:08;;;;;;;0.00;0.00;;;;;;;;;;1739035;28;20650;-73
2023/04/26 02:25:04;;;;;;;0.00;0.00;;;;;;;;;;1738431;28;20208;-73
2023/04/26 02:25:55;;;;;;;0.38;0.38;;;;;;;;;;1737384;28;20255;-73
2023/04/26 02:26:47;;;;;;;0.10;0.10;;;;;;;;;;1737356;28;20206;-73
2023/04/26 02:27:38;;;;;;;0.10;0.10;;;;;;;;;;1739634;28;20207;-73
2023/04/26 02:28:30;;;;;;;0.05;0.05;;;;;;;;;;1739530;28;20226;-73
2023/04/26 02:29:21;;;;;;;0.10;0.10;;;;;;;;;;1740310;28;20246;-73
2023/04/26 02:30:13;;;;;;;0.13;0.13;;;;;;;;;;1737184;28;20221;-73
2023/04/26 02:31:04;;;;;;;0.00;0.00;;;;;;;;;;1739021;28;20211;-73
2023/04/26 02:31:56;;;;;;;0.10;0.10;;;;;;;;;;1738925;28;20195;-73
2023/04/26 02:32:47;;;;;;;0.00;0.00;;;;;;;;;;1738701;28;20763;-73
2023/04/26 02:33:39;;;;;;;0.00;0.00;;;;;;;;;;1739690;28;20800;-73
2023/04/26 02:34:30;;;;;;;0.00;0.00;;;;;;;;;;1733915;28;20211;-73
2023/04/26 02:35:22;;;;;;;0.08;0.08;;;;;;;;;;1737808;28;20179;-72
2023/04/26 02:36:13;;;;;;;0.05;0.05;;;;;;;;;;1739193;28;20583;-73
2023/04/26 02:37:06;;;;;;;0.10;0.10;;;;;;;;;;1738903;28;20656;-73
2023/04/26 02:37:57;;;;;;;0.00;0.00;;;;;;;;;;1738978;28;20241;-73
2023/04/26 02:38:49;;;;;;;0.10;0.10;;;;;;;;;;1739033;28;20207;-73
2023/04/26 02:39:40;;;;;;;0.00;0.00;;;;;;;;;;1736494;28;20697;-73
2023/04/26 02:40:33;;;;;;;0.08;0.08;;;;;;;;;;1736002;28;20280;-72
2023/04/26 02:41:25;;;;;;;0.10;0.10;;;;;;;;;;1738713;28;20215;-72
2023/04/26 02:42:17;;;;;;;0.10;0.10;;;;;;;;;;1734162;28;20254;-72
2023/04/26 02:43:09;;;;;;;0.10;0.10;;;;;;;;;;1736554;28;20265;-72
2023/04/26 02:44:01;;;;;;;0.00;0.00;;;;;;;;;;1741860;28;20780;-72
2023/04/26 02:44:52;;;;;;;0.10;0.10;;;;;;;;;;1738468;28;20215;-72
2023/04/26 02:45:44;;;;;;;0.00;0.00;;;;;;;;;;1737415;28;20345;-72
2023/04/26 02:46:35;;;;;;;0.00;0.00;;;;;;;;;;1740146;28;20206;-72
2023/04/26 02:47:27;;;;;;;0.10;0.10;;;;;;;;;;1739148;28;20245;-72
2023/04/26 02:48:18;;;;;;;0.20;0.20;;;;;;;;;;1738494;28;20625;-72
2023/04/26 02:49:10;;;;;;;0.08;0.08;;;;;;;;;;1732393;28;20576;-72
2023/04/26 02:50:02;;;;;;;0.00;0.00;;;;;;;;;;1734807;28;20208;-72
2023/04/26 02:50:55;;;;;;;0.00;0.00;;;;;;;;;;1737384;28;20329;-72
2023/04/26 02:51:46;;;;;;;0.10;0.10;;;;;;;;;;1739408;28;20218;-72
2023/04/26 02:52:38;;;;;;;0.10;0.10;;;;;;;;;;1739222;28;20203;-72
2023/04/26 02:53:29;;;;;;;0.10;0.10;;;;;;;;;;1738660;28;20215;-72
2023/04/26 02:54:20;;;;;;;0.15;0.15;;;;;;;;;;1738613;28;20211;-72
2023/04/26 02:55:13;;;;;;;0.00;0.00;;;;;;;;;;1736897;28;20569;-72
2023/04/26 02:56:05;;;;;;;0.13;0.13;;;;;;;;;;1736049;28;20299;-72
2023/04/26 02:56:57;;;;;;;0.10;0.10;;;;;;;;;;1738728;28;20282;-72
2023/04/26 02:57:48;;;;;;;0.10;0.10;;;;;;;;;;1738208;28;20218;-72
2023/04/26 02:58:40;;;;;;;0.10;0.10;;;;;;;;;;1743334;28;20207;-72
2023/04/26 02:59:32;;;;;;;0.00;0.00;;;;;;;;;;1733744;28;20279;-72
2023/04/26 03:00:23;;;;;;;0.10;0.10;;;;;;;;;;1740335;28;20207;-73
2023/04/26 03:01:16;;;;;;;0.10;0.10;;;;;;;;;;1739905;28;20211;-73
2023/04/26 03:02:07;;;;;;;0.10;0.10;;;;;;;;;;1738636;28;20253;-73
2023/04/26 03:02:59;;;;;;;0.10;0.10;;;;;;;;;;1739201;28;20218;-73
2023/04/26 03:03:50;;;;;;;0.08;0.08;;;;;;;;;;1742107;28;20275;-73
2023/04/26 03:04:42;;;;;;;0.20;0.20;;;;;;;;;;1737924;28;20214;-73
2023/04/26 03:05:33;;;;;;;0.00;0.00;;;;;;;;;;1737693;28;20322;-72
2023/04/26 03:06:26;;;;;;;0.10;0.10;;;;;;;;;;1739345;28;20218;-72
2023/04/26 03:07:17;;;;;;;0.20;0.20;;;;;;;;;;1739212;28;20199;-73
2023/04/26 03:08:10;;;;;;;0.00;0.00;;;;;;;;;;1739358;28;20207;-73
2023/04/26 03:09:01;;;;;;;0.20;0.20;;;;;;;;;;1729154;28;20350;-73
2023/04/26 03:09:53;;;;;;;0.00;0.00;;;;;;;;;;1728635;28;20236;-73
2023/04/26 03:10:44;;;;;;;0.15;0.15;;;;;;;;;;1724191;28;20245;-73
2023/04/26 03:11:37;;;;;;;0.00;0.00;;;;;;;;;;1730582;28;20645;-73
2023/04/26 03:12:28;;;;;;;0.08;0.08;;;;;;;;;;1731187;28;20269;-72
2023/04/26 03:13:23;;;;;;;0.00;0.00;;;;;;;;;;1732270;28;20209;-73
2023/04/26 03:14:14;;;;;;;0.00;0.00;;;;;;;;;;1729501;28;20216;-73
2023/04/26 03:15:06;;;;;;;0.10;0.10;;;;;;;;;;1728261;28;20212;-73
2023/04/26 03:15:57;;;;;;;0.10;0.10;;;;;;;;;;1727777;28;20244;-73
2023/04/26 03:16:49;;;;;;;0.00;0.00;;;;;;;;;;1729251;28;20215;-73
2023/04/26 03:17:40;;;;;;;0.00;0.00;;;;;;;;;;1725441;28;20243;-73
2023/04/26 03:18:32;;;;;;;0.05;0.05;;;;;;;;;;1729490;28;20533;-73
2023/04/26 03:19:23;;;;;;;0.10;0.10;;;;;;;;;;1725370;28;20262;-73
2023/04/26 03:20:15;;;;;;;0.10;0.10;;;;;;;;;;1727451;28;20228;-73
2023/04/26 03:21:06;;;;;;;0.00;0.00;;;;;;;;;;1727176;28;20227;-72
2023/04/26 03:21:58;;;;;;;0.08;0.08;;;;;;;;;;1729503;28;20204;-72
2023/04/26 03:22:49;;;;;;;0.00;0.00;;;;;;;;;;1731513;28;20213;-72
2023/04/26 03:23:41;;;;;;;0.10;0.10;;;;;;;;;;1730414;28;20223;-72
2023/04/26 03:24:32;;;;;;;0.00;0.00;;;;;;;;;;1726515;28;20212;-72
2023/04/26 03:25:24;;;;;;;0.00;0.00;;;;;;;;;;1726965;28;20208;-73
2023/04/26 03:26:15;;;;;;;0.20;0.20;;;;;;;;;;1730847;28;20875;-72
2023/04/26 03:27:09;;;;;;;0.00;0.00;;;;;;;;;;1730557;28;20705;-72
2023/04/26 03:28:00;;;;;;;0.10;0.10;;;;;;;;;;1730511;28;20454;-72
2023/04/26 03:28:52;;;;;;;0.10;0.10;;;;;;;;;;1728534;28;20204;-72
2023/04/26 03:29:43;;;;;;;0.00;0.00;;;;;;;;;;1731057;28;20208;-72
2023/04/26 03:30:35;;;;;;;0.00;0.00;;;;;;;;;;1726502;28;20288;-72
2023/04/26 03:31:26;;;;;;;0.00;0.00;;;;;;;;;;1732926;28;20215;-72
2023/04/26 03:32:18;;;;;;;0.00;0.00;;;;;;;;;;1734167;28;20712;-72
2023/04/26 03:33:09;;;;;;;0.10;0.10;;;;;;;;;;1731627;28;20712;-72
2023/04/26 03:34:01;;;;;;;0.00;0.00;;;;;;;;;;1729959;28;20224;-72
2023/04/26 03:34:52;;;;;;;0.00;0.00;;;;;;;;;;1731383;28;20212;-72
2023/04/26 03:35:44;;;;;;;0.00;0.00;;;;;;;;;;1731555;28;20693;-72
2023/04/26 03:36:37;;;;;;;0.10;0.10;;;;;;;;;;1732843;28;20519;-72
2023/04/26 03:37:28;;;;;;;0.00;0.00;;;;;;;;;;1732139;28;20218;-72
2023/04/26 03:38:20;;;;;;;0.00;0.00;;;;;;;;;;1731273;28;20645;-72
2023/04/26 03:39:11;;;;;;;0.10;0.10;;;;;;;;;;1729642;28;20265;-72
2023/04/26 03:40:08;;;;;;;0.00;0.00;;;;;;;;;;1730667;28;20231;-72
2023/04/26 03:41:00;;;;;;;0.00;0.00;;;;;;;;;;1726931;28;20243;-72
2023/04/26 03:41:52;;;;;;;0.20;0.20;;;;;;;;;;1731198;28;20200;-72
2023/04/26 03:42:44;;;;;;;0.00;0.00;;;;;;;;;;1732870;28;20219;-72
2023/04/26 03:43:36;;;;;;;0.10;0.10;;;;;;;;;;1730110;28;20269;-72
2023/04/26 03:44:27;;;;;;;0.10;0.10;;;;;;;;;;1731746;28;20604;-72
2023/04/26 03:45:19;;;;;;;0.00;0.00;;;;;;;;;;1727411;28;20213;-72
2023/04/26 03:46:11;;;;;;;0.00;0.00;;;;;;;;;;1729560;28;20265;-72
2023/04/26 03:47:04;;;;;;;0.00;0.00;;;;;;;;;;1731435;28;20474;-72
2023/04/26 03:47:55;;;;;;;0.00;0.00;;;;;;;;;;1732055;28;20212;-73
2023/04/26 03:48:47;;;;;;;0.10;0.10;;;;;;;;;;1728926;28;20232;-73
2023/04/26 03:49:38;;;;;;;0.05;0.05;;;;;;;;;;1731906;28;20207;-73
2023/04/26 03:50:30;;;;;;;0.00;0.00;;;;;;;;;;1726894;28;20229;-72
2023/04/26 03:51:21;;;;;;;0.15;0.15;;;;;;;;;;1729796;28;20249;-72
2023/04/26 03:52:13;;;;;;;0.17;0.17;;;;;;;;;;1732198;28;20574;-73
2023/04/26 03:53:04;;;;;;;0.00;0.00;;;;;;;;;;1733783;28;20331;-73
2023/04/26 03:53:56;;;;;;;0.00;0.00;;;;;;;;;;1731623;28;20201;-72
2023/04/26 03:54:47;;;;;;;0.00;0.00;;;;;;;;;;1732738;28;20505;-73
2023/04/26 03:55:39;;;;;;;0.05;0.05;;;;;;;;;;1730619;28;20233;-72
2023/04/26 03:56:30;;;;;;;0.00;0.00;;;;;;;;;;1734361;28;20253;-72
2023/04/26 03:57:22;;;;;;;0.00;0.00;;;;;;;;;;1733402;28;20208;-72
2023/04/26 03:58:14;;;;;;;0.20;0.20;;;;;;;;;;1732084;28;21026;-73
2023/04/26 03:59:08;;;;;;;0.10;0.10;;;;;;;;;;1729471;28;20265;-73
2023/04/26 03:59:59;;;;;;;0.10;0.10;;;;;;;;;;1732325;28;20204;-72
2023/04/26 04:00:51;;;;;;;0.10;0.10;;;;;;;;;;1731242;28;20236;-73
2023/04/26 04:01:42;;;;;;;0.00;0.00;;;;;;;;;;1734706;28;20543;-72
2023/04/26 04:02:34;;;;;;;0.10;0.10;;;;;;;;;;1732729;28;20733;-72
2023/04/26 04:03:25;;;;;;;0.22;0.22;;;;;;;;;;1731340;28;20208;-72
2023/04/26 04:04:17;;;;;;;0.20;0.20;;;;;;;;;;1730619;28;20199;-73
2023/04/26 04:05:08;;;;;;;0.10;0.10;;;;;;;;;;1730115;28;20216;-73
2023/04/26 04:06:00;;;;;;;0.10;0.10;;;;;;;;;;1727490;28;20745;-72
2023/04/26 04:06:51;;;;;;;0.13;0.13;;;;;;;;;;1731468;28;20215;-72
2023/04/26 04:07:43;;;;;;;0.00;0.00;;;;;;;;;;1733146;28;20548;-72
2023/04/26 04:08:37;;;;;;;0.00;0.00;;;;;;;;;;1735989;28;20257;-72
2023/04/26 04:09:29;;;;;;;0.20;0.20;;;;;;;;;;1730162;28;20666;-72
2023/04/26 04:10:21;;;;;;;0.00;0.00;;;;;;;;;;1732139;28;20212;-72
2023/04/26 04:11:13;;;;;;;0.00;0.00;;;;;;;;;;1730701;28;20210;-72
2023/04/26 04:12:05;;;;;;;0.00;0.00;;;;;;;;;;1735293;28;20295;-72
2023/04/26 04:12:56;;;;;;;0.00;0.00;;;;;;;;;;1732625;28;20203;-72
2023/04/26 04:13:49;;;;;;;0.10;0.10;;;;;;;;;;1731981;28;20693;-72
2023/04/26 04:14:41;;;;;;;0.20;0.20;;;;;;;;;;1729538;28;20208;-72
2023/04/26 04:15:32;;;;;;;0.03;0.03;;;;;;;;;;1725128;28;20301;-72
2023/04/26 04:16:24;;;;;;;0.03;0.03;;;;;;;;;;1731116;28;20216;-72
2023/04/26 04:17:15;;;;;;;0.13;0.13;;;;;;;;;;1727914;28;20216;-72
2023/04/26 04:18:07;;;;;;;0.10;0.10;;;;;;;;;;1730226;28;20266;-72
2023/04/26 04:18:58;;;;;;;0.00;0.00;;;;;;;;;;1730858;28;20607;-72
2023/04/26 04:19:50;;;;;;;0.00;0.00;;;;;;;;;;1732763;28;20200;-73
2023/04/26 04:20:41;;;;;;;0.00;0.00;;;;;;;;;;1730649;28;20240;-73
2023/04/26 04:21:33;;;;;;;0.15;0.15;;;;;;;;;;1732331;28;20215;-72
2023/04/26 04:22:25;;;;;;;0.00;0.00;;;;;;;;;;1732534;28;20207;-72
2023/04/26 04:23:17;;;;;;;0.00;0.00;;;;;;;;;;1732236;28;20200;-73
2023/04/26 04:24:08;;;;;;;0.00;0.00;;;;;;;;;;1729481;28;20711;-72
2023/04/26 04:25:03;;;;;;;0.10;0.10;;;;;;;;;;1732724;28;20311;-72
2023/04/26 04:25:54;;;;;;;0.00;0.00;;;;;;;;;;1730785;28;20241;-72
2023/04/26 04:26:46;;;;;;;0.10;0.10;;;;;;;;;;1730197;28;20452;-72
2023/04/26 04:27:37;;;;;;;0.10;0.10;;;;;;;;;;1726060;28;20604;-72
2023/04/26 04:28:29;;;;;;;0.00;0.00;;;;;;;;;;1730868;28;20218;-72
2023/04/26 04:29:22;;;;;;;0.00;0.00;;;;;;;;;;1730761;28;20208;-72
2023/04/26 04:30:14;;;;;;;0.00;0.00;;;;;;;;;;1730654;28;20373;-72
2023/04/26 04:31:05;;;;;;;0.00;0.00;;;;;;;;;;1730745;28;22841;-72
2023/04/26 04:31:57;;;;;;;0.00;0.00;;;;;;;;;;1734019;28;20195;-73
2023/04/26 04:32:48;;;;;;;0.00;0.00;;;;;;;;;;1732449;28;20269;-73
2023/04/26 04:33:40;;;;;;;0.13;0.13;;;;;;;;;;1729876;28;20638;-73
2023/04/26 04:34:34;;;;;;;0.10;0.10;;;;;;;;;;1732161;28;20216;-73
2023/04/26 04:35:28;;;;;;;0.00;0.00;;;;;;;;;;1728327;28;20220;-73
2023/04/26 04:36:19;;;;;;;0.10;0.10;;;;;;;;;;1728170;28;20212;-73
2023/04/26 04:37:11;;;;;;;0.20;0.20;;;;;;;;;;1734011;28;20622;-73
2023/04/26 04:38:03;;;;;;;0.00;0.00;;;;;;;;;;1731946;28;20219;-73
2023/04/26 04:38:55;;;;;;;0.00;0.00;;;;;;;;;;1729217;28;20227;-73
2023/04/26 04:39:46;;;;;;;0.10;0.10;;;;;;;;;;1731592;28;20595;-73
2023/04/26 04:40:38;;;;;;;0.00;0.00;;;;;;;;;;1726343;28;20248;-73
2023/04/26 04:41:29;;;;;;;0.00;0.00;;;;;;;;;;1731594;28;20545;-72
2023/04/26 04:42:21;;;;;;;0.10;0.10;;;;;;;;;;1731703;28;20269;-73
2023/04/26 04:43:13;;;;;;;0.00;0.00;;;;;;;;;;1734183;28;20567;-72
2023/04/26 04:44:05;;;;;;;0.03;0.03;;;;;;;;;;1729509;28;20205;-73
2023/04/26 04:44:58;;;;;;;0.00;0.00;;;;;;;;;;1732621;28;20236;-73
2023/04/26 04:45:50;;;;;;;0.17;0.17;;;;;;;;;;1731132;28;20243;-73
2023/04/26 04:46:41;;;;;;;0.00;0.00;;;;;;;;;;1732149;28;20277;-73
2023/04/26 04:47:36;;;;;;;0.00;0.00;;;;;;;;;;1732317;28;20216;-73
2023/04/26 04:48:27;;;;;;;0.10;0.10;;;;;;;;;;1733456;28;20526;-73
2023/04/26 04:49:19;;;;;;;0.10;0.10;;;;;;;;;;1730293;28;20192;-73
2023/04/26 04:50:10;;;;;;;0.00;0.00;;;;;;;;;;1731173;28;20299;-73
2023/04/26 04:51:02;;;;;;;0.00;0.00;;;;;;;;;;1726875;28;20311;-73
2023/04/26 04:51:53;;;;;;;0.00;0.00;;;;;;;;;;1732191;28;20638;-73
2023/04/26 04:52:45;;;;;;;0.00;0.00;;;;;;;;;;1732626;28;20670;-73
2023/04/26 04:53:36;;;;;;;0.00;0.00;;;;;;;;;;1732818;28;20231;-73
2023/04/26 04:54:28;;;;;;;0.00;0.00;;;;;;;;;;1730899;28;20208;-72
2023/04/26 04:55:20;;;;;;;0.00;0.00;;;;;;;;;;1730353;28;20213;-72
2023/04/26 04:56:13;;;;;;;0.00;0.00;;;;;;;;;;1730639;28;20209;-72
2023/04/26 04:57:04;;;;;;;0.03;0.03;;;;;;;;;;1731498;28;20516;-72
2023/04/26 04:57:56;;;;;;;0.00;0.00;;;;;;;;;;1732147;28;20688;-73
2023/04/26 04:58:47;;;;;;;0.00;0.00;;;;;;;;;;1731458;28;20215;-72
2023/04/26 04:59:39;;;;;;;0.10;0.10;;;;;;;;;;1732365;28;20294;-72
2023/04/26 05:00:32;;;;;;;0.00;0.00;;;;;;;;;;1728141;28;20275;-73
2023/04/26 05:01:24;;;;;;;0.00;0.00;;;;;;;;;;1730516;28;20222;-73
2023/04/26 05:02:15;;;;;;;0.00;0.00;;;;;;;;;;1731747;28;20591;-73
2023/04/26 05:03:08;;;;;;;0.08;0.08;;;;;;;;;;1731704;28;21081;-73
2023/04/26 05:03:59;;;;;;;0.00;0.00;;;;;;;;;;1728870;28;20626;-73
2023/04/26 05:04:51;;;;;;;0.10;0.10;;;;;;;;;;1731721;28;20208;-72
2023/04/26 05:05:42;;;;;;;0.03;0.03;;;;;;;;;;1731505;28;20316;-72
2023/04/26 05:06:35;;;;;;;0.00;0.00;;;;;;;;;;1731942;28;20211;-72
2023/04/26 05:07:26;;;;;;;0.10;0.10;;;;;;;;;;1731132;28;20220;-72
2023/04/26 05:08:18;;;;;;;0.10;0.10;;;;;;;;;;1732962;28;20701;-73
2023/04/26 05:09:10;;;;;;;0.00;0.00;;;;;;;;;;1737966;28;20264;-73
2023/04/26 05:10:03;;;;;;;0.00;0.00;;;;;;;;;;1737839;28;20227;-73
2023/04/26 05:10:55;;;;;;;0.00;0.00;;;;;;;;;;1737594;28;20235;-73